Time;durP1;ratioP1;P1;durP2;ratioP2;P2;SDS_P1;SDS_P2;PMS_P1;PMS_P2;Temp;Humidity;BMP_temperature;BMP_pressure;BME280_temperature;BME280_humidity;BME280_pressure;Samples;Min_cycle;Max_cycle;Signal;HPM_P1;HPM_P2
2022/10/29 00:00:23;;;;;;;6.90;5.50;;;;;;;12.73;100.00;100963.28;4992837;28;20230;-73
2022/10/29 00:02:48;;;;;;;7.27;5.73;;;;;;;12.71;100.00;100954.66;4991030;28;20195;-75
2022/10/29 00:05:14;;;;;;;6.93;5.33;;;;;;;12.68;100.00;100954.66;4991288;28;20205;-76
2022/10/29 00:07:39;;;;;;;8.90;5.20;;;;;;;12.67;100.00;100954.69;4989124;28;20190;-73
2022/10/29 00:10:05;;;;;;;5.50;5.00;;;;;;;12.63;100.00;100953.81;4985671;28;20196;-73
2022/10/29 00:12:31;;;;;;;6.80;5.10;;;;;;;12.61;100.00;100947.81;4987549;28;20203;-75
2022/10/29 00:14:56;;;;;;;5.83;5.23;;;;;;;12.57;100.00;100949.53;4985679;28;20206;-74
2022/10/29 00:17:22;;;;;;;5.17;4.67;;;;;;;12.55;100.00;100951.31;4992796;28;20569;-73
2022/10/29 00:19:47;;;;;;;9.37;5.50;;;;;;;12.52;100.00;100940.94;4985485;28;20941;-73
2022/10/29 00:22:13;;;;;;;6.73;5.30;;;;;;;12.50;100.00;100945.28;4986799;28;20194;-74
2022/10/29 00:24:39;;;;;;;7.10;5.30;;;;;;;12.48;100.00;100944.41;4987561;28;20227;-74
2022/10/29 00:27:04;;;;;;;5.70;4.97;;;;;;;12.45;100.00;100947.91;4987663;28;20195;-74
2022/10/29 00:29:29;;;;;;;6.13;4.67;;;;;;;12.44;100.00;100948.78;4987370;28;20190;-74
2022/10/29 00:31:55;;;;;;;7.17;4.90;;;;;;;12.45;100.00;100947.91;4987758;28;20608;-72
2022/10/29 00:34:20;;;;;;;6.73;4.90;;;;;;;12.44;100.00;100945.28;4990401;28;20212;-74
2022/10/29 00:36:45;;;;;;;5.73;5.13;;;;;;;12.42;100.00;100945.31;4987692;28;20206;-73
2022/10/29 00:39:15;;;;;;;6.90;6.20;;;;;;;12.42;100.00;100939.25;4985161;28;20559;-75
2022/10/29 00:41:41;;;;;;;7.77;5.87;;;;;;;12.41;100.00;100941.00;4985752;28;20201;-75
2022/10/29 00:44:21;;;;;;;8.07;5.40;;;;;;;12.41;100.00;100934.91;4989562;28;20221;-75
2022/10/29 00:46:50;;;;;;;7.07;5.87;;;;;;;12.40;100.00;100938.41;4988034;28;20673;-73
2022/10/29 00:49:17;;;;;;;5.70;5.13;;;;;;;12.38;100.00;100938.41;4985487;28;20264;-75
2022/10/29 00:51:44;;;;;;;5.53;4.97;;;;;;;12.37;100.00;100934.09;4990244;28;20202;-72
2022/10/29 00:54:11;;;;;;;5.13;4.73;;;;;;;12.36;100.00;100940.16;4988534;28;20214;-73
2022/10/29 00:56:49;;;;;;;5.33;4.30;;;;;;;12.35;100.00;100941.91;4985343;28;20216;-74
2022/10/29 00:59:16;;;;;;;5.73;4.80;;;;;;;12.34;100.00;100947.97;4985792;28;20273;-73
2022/10/29 01:01:43;;;;;;;5.27;4.47;;;;;;;12.34;100.00;100953.16;4988382;28;20193;-74
2022/10/29 01:04:10;;;;;;;5.50;5.00;;;;;;;12.34;100.00;100947.97;4988948;28;20209;-74
2022/10/29 01:06:36;;;;;;;7.37;5.27;;;;;;;12.35;100.00;100948.81;4989966;28;20195;-74
2022/10/29 01:09:01;;;;;;;9.30;5.53;;;;;;;12.36;100.00;100945.34;4988829;28;20238;-74
2022/10/29 01:11:55;;;;;;;10.03;5.20;;;;;;;12.38;100.00;100943.59;4989386;28;20724;-75
2022/10/29 01:14:41;;;;;;;6.57;4.67;;;;;;;12.40;100.00;100951.41;4986809;28;20213;-75
2022/10/29 01:17:31;;;;;;;8.80;5.00;;;;;;;12.40;100.00;100941.88;4990997;28;20543;-74
2022/10/29 01:20:30;;;;;;;7.00;5.17;;;;;;;12.40;100.00;100934.06;4987408;28;20210;-76
2022/10/29 01:23:18;;;;;;;8.37;5.03;;;;;;;12.44;100.00;100938.38;4985305;28;20584;-75
2022/10/29 01:26:05;;;;;;;6.27;4.60;;;;;;;12.48;100.00;100924.50;4988030;28;20185;-74
2022/10/29 01:28:51;;;;;;;6.27;4.87;;;;;;;12.52;100.00;100930.53;4983353;28;20189;-74
2022/10/29 01:31:59;;;;;;;5.63;4.40;;;;;;;12.52;100.00;100921.88;4987213;28;20183;-75
2022/10/29 01:34:30;;;;;;;7.63;4.50;;;;;;;12.49;100.00;100921.03;4985719;28;20318;-74
2022/10/29 01:37:01;;;;;;;7.70;4.50;;;;;;;12.46;100.00;100915.88;4988421;28;20266;-75
2022/10/29 01:39:34;;;;;;;5.30;4.50;;;;;;;12.44;100.00;100916.75;4988855;28;20214;-74
2022/10/29 01:42:04;;;;;;;5.73;5.10;;;;;;;12.40;100.00;100915.06;5006494;28;20318;-75
2022/10/29 01:44:48;;;;;;;5.67;4.60;;;;;;;12.37;100.00;100912.47;4987712;28;20205;-75
2022/10/29 01:47:18;;;;;;;4.80;4.30;;;;;;;12.32;100.00;100905.56;4987216;28;20217;-73
2022/10/29 01:49:52;;;;;;;5.97;4.37;;;;;;;12.28;100.00;100903.84;4989469;28;20180;-75
2022/10/29 01:52:20;;;;;;;6.70;4.43;;;;;;;12.25;100.00;100903.03;4991860;28;20207;-73
2022/10/29 01:54:46;;;;;;;6.57;4.90;;;;;;;12.21;100.00;100894.41;4986739;28;20638;-74
2022/10/29 01:57:41;;;;;;;7.40;4.27;;;;;;;12.17;100.00;100897.88;4987543;28;20689;-74
2022/10/29 02:00:13;;;;;;;5.53;4.47;;;;;;;12.14;100.00;100909.16;4986022;28;20226;-74
2022/10/29 02:03:00;;;;;;;6.40;4.67;;;;;;;12.11;100.00;100901.38;4986749;28;20204;-74
2022/10/29 02:05:32;;;;;;;5.50;4.57;;;;;;;12.09;100.00;100894.47;4983175;28;20193;-73
2022/10/29 02:08:35;;;;;;;5.33;4.47;;;;;;;12.07;100.00;100893.63;4988640;28;20264;-75
2022/10/29 02:11:45;;;;;;;5.07;4.03;;;;;;;12.03;100.00;100900.53;4991110;28;20624;-74
2022/10/29 02:14:19;;;;;;;8.03;4.50;;;;;;;12.00;100.00;100887.59;4986567;28;20574;-74
2022/10/29 02:16:45;;;;;;;8.40;4.80;;;;;;;11.98;100.00;100889.31;4990057;28;20189;-73
2022/10/29 02:19:10;;;;;;;6.03;4.60;;;;;;;11.97;100.00;100891.03;4992609;28;20207;-74
2022/10/29 02:21:35;;;;;;;6.07;4.03;;;;;;;11.95;100.00;100886.72;4994727;28;20239;-75
2022/10/29 02:24:01;;;;;;;6.17;4.53;;;;;;;11.93;100.00;100891.94;4992541;28;20327;-73
2022/10/29 02:26:26;;;;;;;5.93;4.70;;;;;;;11.91;100.00;100880.69;4989168;28;20219;-73
2022/10/29 02:28:51;;;;;;;6.43;4.53;;;;;;;11.90;100.00;100885.00;4993149;28;20195;-73
2022/10/29 02:31:16;;;;;;;7.97;4.33;;;;;;;11.89;100.00;100882.44;4992020;28;20592;-73
2022/10/29 02:33:42;;;;;;;5.97;4.83;;;;;;;11.88;100.00;100883.28;4989739;28;20215;-73
2022/10/29 02:36:08;;;;;;;7.70;4.80;;;;;;;11.85;100.00;100879.00;4990158;28;20223;-74
2022/10/29 02:38:33;;;;;;;5.10;4.20;;;;;;;11.85;100.00;100873.81;4986699;28;20197;-75
2022/10/29 02:40:58;;;;;;;6.47;4.20;;;;;;;11.88;100.00;100875.53;4990053;28;20205;-73
2022/10/29 02:43:24;;;;;;;6.27;4.67;;;;;;;11.88;100.00;100878.13;4992012;28;20226;-75
2022/10/29 02:45:49;;;;;;;6.30;4.27;;;;;;;11.85;100.00;100881.59;4994036;28;20188;-75
2022/10/29 02:48:15;;;;;;;4.97;4.47;;;;;;;11.84;100.00;100881.59;4994678;28;20214;-74
2022/10/29 02:50:40;;;;;;;6.60;4.73;;;;;;;11.81;100.00;100884.19;4991768;28;20190;-73
2022/10/29 02:53:05;;;;;;;5.30;4.53;;;;;;;11.78;100.00;100881.63;4990997;28;20697;-74
2022/10/29 02:55:31;;;;;;;5.97;4.57;;;;;;;11.74;100.00;100883.34;4988528;28;20194;-72
2022/10/29 02:57:56;;;;;;;7.53;4.73;;;;;;;11.70;100.00;100879.06;4987689;28;20213;-74
2022/10/29 03:00:21;;;;;;;5.67;4.87;;;;;;;11.67;100.00;100877.31;4992674;28;20211;-74
2022/10/29 03:02:51;;;;;;;9.13;5.27;;;;;;;11.67;100.00;100877.31;4994315;28;20392;-73
2022/10/29 03:05:16;;;;;;;7.53;5.03;;;;;;;11.65;100.00;100866.09;4989741;28;20192;-76
2022/10/29 03:07:41;;;;;;;6.07;5.07;;;;;;;11.67;100.00;100868.69;4992687;28;20189;-72
2022/10/29 03:10:07;;;;;;;8.83;5.60;;;;;;;11.68;100.00;100873.03;4988830;28;20452;-74
2022/10/29 03:12:33;;;;;;;6.17;4.87;;;;;;;11.68;100.00;100870.44;4987367;28;20197;-73
2022/10/29 03:14:58;;;;;;;6.80;4.90;;;;;;;11.69;100.00;100869.56;4988234;28;20242;-74
2022/10/29 03:17:24;;;;;;;9.77;4.97;;;;;;;11.67;100.00;100864.38;4991352;28;20175;-72
2022/10/29 03:19:49;;;;;;;7.03;4.83;;;;;;;11.67;100.00;100855.75;4987389;28;20216;-74
2022/10/29 03:22:15;;;;;;;6.03;4.43;;;;;;;11.65;100.00;100860.91;4989365;28;20189;-73
2022/10/29 03:24:40;;;;;;;6.90;5.03;;;;;;;11.63;100.00;100852.31;4985909;28;20209;-75
2022/10/29 03:27:06;;;;;;;6.23;4.83;;;;;;;11.61;100.00;100848.84;4989726;28;20204;-73
2022/10/29 03:29:31;;;;;;;6.23;4.43;;;;;;;11.57;100.00;100841.94;4991061;28;20188;-73
2022/10/29 03:31:56;;;;;;;6.93;4.83;;;;;;;11.56;100.00;100841.09;4990484;28;20193;-72
2022/10/29 03:34:22;;;;;;;7.67;4.80;;;;;;;11.53;100.00;100848.88;4992053;28;20213;-73
2022/10/29 03:36:47;;;;;;;7.47;4.87;;;;;;;11.50;100.00;100835.94;4992948;28;20194;-74
2022/10/29 03:39:13;;;;;;;10.10;5.23;;;;;;;11.48;100.00;100849.78;4990364;28;20232;-74
2022/10/29 03:41:38;;;;;;;10.23;5.27;;;;;;;11.44;100.00;100862.75;4985194;28;20285;-73
2022/10/29 03:44:03;;;;;;;11.00;5.37;;;;;;;11.40;100.00;100861.00;4986935;28;20201;-75
2022/10/29 03:46:29;;;;;;;8.07;4.83;;;;;;;11.38;100.00;100860.16;4987511;28;20695;-73
2022/10/29 03:48:54;;;;;;;6.67;4.57;;;;;;;11.35;100.00;100857.56;4991478;28;20560;-76
2022/10/29 03:51:19;;;;;;;6.23;4.23;;;;;;;11.33;100.00;100864.50;4989217;28;20185;-74
2022/10/29 03:53:44;;;;;;;6.07;4.27;;;;;;;11.30;100.00;100869.69;4990825;28;20223;-73
2022/10/29 03:56:10;;;;;;;4.77;4.27;;;;;;;11.25;100.00;100874.88;4986016;28;20631;-75
2022/10/29 03:58:35;;;;;;;5.43;3.87;;;;;;;11.24;100.00;100872.28;4990040;28;20340;-73
2022/10/29 04:01:02;;;;;;;7.80;4.30;;;;;;;11.21;100.00;100875.75;4989032;28;20236;-72
2022/10/29 04:03:29;;;;;;;6.17;4.10;;;;;;;11.17;100.00;100876.63;4986596;28;20212;-74
2022/10/29 04:05:55;;;;;;;6.77;3.93;;;;;;;11.16;100.00;100876.63;4988879;28;21129;-73
2022/10/29 04:08:21;;;;;;;4.80;4.30;;;;;;;11.15;100.00;100880.09;4993696;28;20212;-73
2022/10/29 04:10:49;;;;;;;5.53;4.13;;;;;;;11.12;100.00;100876.63;4990113;28;20568;-73
2022/10/29 04:13:15;;;;;;;6.40;4.27;;;;;;;11.11;100.00;100872.31;4986770;28;20216;-74
2022/10/29 04:15:40;;;;;;;4.90;4.40;;;;;;;11.10;100.00;100882.69;4988934;28;20213;-75
2022/10/29 04:18:06;;;;;;;7.00;4.77;;;;;;;11.09;100.00;100868.84;4991119;28;20193;-74
2022/10/29 04:20:31;;;;;;;5.33;4.40;;;;;;;11.07;100.00;100875.75;4987188;28;20267;-74
2022/10/29 04:22:57;;;;;;;5.80;4.60;;;;;;;11.08;100.00;100880.09;4984027;28;20217;-73
2022/10/29 04:25:22;;;;;;;5.50;4.60;;;;;;;11.06;100.00;100870.59;4990156;28;20228;-74
2022/10/29 04:27:47;;;;;;;7.20;4.63;;;;;;;11.05;100.00;100874.06;4993019;28;20189;-74
2022/10/29 04:30:12;;;;;;;7.57;4.50;;;;;;;11.04;100.00;100869.72;4990947;28;20255;-73
2022/10/29 04:32:38;;;;;;;6.23;4.63;;;;;;;11.01;100.00;100869.72;4989104;28;20292;-74
2022/10/29 04:35:04;;;;;;;5.50;4.03;;;;;;;10.98;100.00;100868.88;4987221;28;20241;-74
2022/10/29 04:37:29;;;;;;;5.20;3.90;;;;;;;10.95;100.00;100886.16;4994731;28;20227;-73
2022/10/29 04:39:54;;;;;;;4.47;4.07;;;;;;;10.90;100.00;100887.88;4988750;28;20221;-72
2022/10/29 04:42:20;;;;;;;5.60;3.70;;;;;;;10.84;100.00;100880.97;4991091;28;20186;-74
2022/10/29 04:44:45;;;;;;;6.60;4.70;;;;;;;10.80;100.00;100872.34;4989505;28;20288;-72
2022/10/29 04:47:11;;;;;;;6.00;4.03;;;;;;;10.77;100.00;100876.66;4989696;28;20221;-75
2022/10/29 04:49:36;;;;;;;4.80;4.27;;;;;;;10.77;100.00;100874.94;4989844;28;20204;-75
2022/10/29 04:52:01;;;;;;;4.57;4.17;;;;;;;10.76;100.00;100874.94;4988597;28;20197;-74
2022/10/29 04:54:27;;;;;;;4.90;4.23;;;;;;;10.77;100.00;100882.69;4983899;28;20666;-75
2022/10/29 04:56:52;;;;;;;4.83;4.33;;;;;;;10.77;100.00;100881.84;4984681;28;20193;-75
2022/10/29 04:59:17;;;;;;;5.03;3.87;;;;;;;10.75;100.00;100887.00;4989774;28;20197;-74
2022/10/29 05:01:43;;;;;;;4.60;3.83;;;;;;;10.73;100.00;100881.00;4988884;28;20598;-74
2022/10/29 05:04:08;;;;;;;6.60;4.10;;;;;;;10.71;100.00;100881.84;4987921;28;20752;-73
2022/10/29 05:06:33;;;;;;;4.67;3.97;;;;;;;10.69;100.00;100889.63;4988508;28;20224;-72
2022/10/29 05:08:59;;;;;;;5.13;3.80;;;;;;;10.70;100.00;100886.16;4987332;28;20251;-75
2022/10/29 05:11:24;;;;;;;6.17;4.20;;;;;;;10.67;100.00;100870.63;4988834;28;20434;-74
2022/10/29 05:13:49;;;;;;;5.20;4.53;;;;;;;10.66;100.00;100882.69;4987527;28;20217;-75
2022/10/29 05:16:15;;;;;;;6.67;4.50;;;;;;;10.64;100.00;100868.91;4986391;28;20196;-74
2022/10/29 05:18:40;;;;;;;5.90;4.23;;;;;;;10.65;100.00;100869.75;4987465;28;20193;-75
2022/10/29 05:21:06;;;;;;;6.17;4.87;;;;;;;10.64;100.00;100871.50;4988644;28;20684;-75
2022/10/29 05:23:32;;;;;;;5.90;4.40;;;;;;;10.64;100.00;100886.16;4988607;28;20558;-74
2022/10/29 05:25:57;;;;;;;5.73;4.23;;;;;;;10.62;100.00;100886.16;4991697;28;20198;-73
2022/10/29 05:28:23;;;;;;;4.73;3.93;;;;;;;10.61;100.00;100886.16;4988059;28;20199;-73
2022/10/29 05:30:50;;;;;;;10.13;4.90;;;;;;;10.59;100.00;100882.72;4990256;28;20185;-74
2022/10/29 05:33:18;;;;;;;6.30;5.00;;;;;;;10.56;100.00;100886.16;5007227;28;20209;-74
2022/10/29 05:35:44;;;;;;;9.77;5.00;;;;;;;10.56;100.00;100886.16;4989948;28;20576;-74
2022/10/29 05:38:11;;;;;;;5.20;4.37;;;;;;;10.56;100.00;100882.72;4988977;28;20197;-74
2022/10/29 05:40:36;;;;;;;5.97;4.33;;;;;;;10.53;100.00;100886.13;4984437;28;20213;-74
2022/10/29 05:43:02;;;;;;;6.03;4.30;;;;;;;10.52;100.00;100887.88;4983430;28;20286;-74
2022/10/29 05:45:27;;;;;;;5.60;4.70;;;;;;;10.56;100.00;100887.88;4986351;28;20220;-72
2022/10/29 05:47:56;;;;;;;6.60;4.57;;;;;;;10.56;100.00;100885.31;4994592;28;20534;-72
2022/10/29 05:50:22;;;;;;;6.90;4.40;;;;;;;10.57;100.00;100890.47;4989814;28;20189;-74
2022/10/29 05:52:59;;;;;;;8.40;4.67;;;;;;;10.57;100.00;100890.47;4992631;28;20181;-74
2022/10/29 05:55:25;;;;;;;6.63;4.40;;;;;;;10.58;100.00;100886.16;4993724;28;20280;-74
2022/10/29 05:57:54;;;;;;;5.70;4.37;;;;;;;10.58;100.00;100892.19;4993397;28;20255;-73
2022/10/29 06:00:20;;;;;;;7.47;4.60;;;;;;;10.53;100.00;100896.50;4992289;28;20213;-75
2022/10/29 06:02:45;;;;;;;7.57;4.63;;;;;;;10.50;100.00;100886.16;4992941;28;20193;-75
2022/10/29 06:05:10;;;;;;;8.77;4.90;;;;;;;10.47;100.00;100880.97;4992370;28;20296;-75
2022/10/29 06:07:36;;;;;;;5.10;4.60;;;;;;;10.48;100.00;100886.13;4992048;28;20267;-74
2022/10/29 06:10:01;;;;;;;5.43;4.47;;;;;;;10.50;100.00;100888.75;4992225;28;20201;-74
2022/10/29 06:12:30;;;;;;;4.93;4.37;;;;;;;10.50;100.00;100887.00;4992767;28;20189;-75
2022/10/29 06:14:56;;;;;;;5.00;4.30;;;;;;;10.50;100.00;100886.16;4993157;28;20233;-74
2022/10/29 06:17:21;;;;;;;6.03;4.57;;;;;;;10.50;100.00;100879.25;5006726;28;20224;-74
2022/10/29 06:19:46;;;;;;;5.47;4.70;;;;;;;10.52;100.00;100879.22;4990962;28;20213;-74
2022/10/29 06:22:11;;;;;;;5.13;4.37;;;;;;;10.55;100.00;100892.19;4993881;28;20245;-74
2022/10/29 06:24:37;;;;;;;5.60;5.00;;;;;;;10.58;100.00;100889.59;4991428;28;20766;-75
2022/10/29 06:27:02;;;;;;;6.23;4.30;;;;;;;10.62;100.00;100885.28;4984030;28;20198;-76
2022/10/29 06:29:27;;;;;;;6.67;4.43;;;;;;;10.65;100.00;100886.16;4990096;28;20189;-75
2022/10/29 06:31:53;;;;;;;6.00;4.57;;;;;;;10.68;100.00;100878.38;4988780;28;20197;-75
2022/10/29 06:34:18;;;;;;;7.00;4.30;;;;;;;10.72;100.00;100887.03;4985215;28;20220;-76
2022/10/29 06:36:43;;;;;;;6.37;4.43;;;;;;;10.75;100.00;100884.41;4985651;28;20952;-76
2022/10/29 06:39:09;;;;;;;7.07;4.70;;;;;;;10.77;100.00;100882.69;4993576;28;20290;-76
2022/10/29 06:41:34;;;;;;;4.87;4.47;;;;;;;10.81;100.00;100888.75;4981988;28;20224;-75
2022/10/29 06:43:59;;;;;;;5.70;4.57;;;;;;;10.86;100.00;100883.56;4986159;28;20244;-74
2022/10/29 06:46:25;;;;;;;6.30;5.23;;;;;;;10.91;100.00;100887.88;4985137;28;20288;-75
2022/10/29 06:48:50;;;;;;;6.83;4.37;;;;;;;10.97;100.00;100894.78;4987565;28;20181;-75
2022/10/29 06:51:15;;;;;;;7.13;5.23;;;;;;;11.01;100.00;100888.75;4986744;28;20631;-76
2022/10/29 06:53:40;;;;;;;6.00;5.40;;;;;;;11.05;100.00;100885.25;4984479;28;20282;-75
2022/10/29 06:56:06;;;;;;;7.10;5.70;;;;;;;11.09;100.00;100884.41;4982628;28;20190;-75
2022/10/29 06:58:31;;;;;;;9.00;5.73;;;;;;;11.13;100.00;100887.84;4988404;28;20273;-75
2022/10/29 07:00:59;;;;;;;7.30;6.07;;;;;;;11.17;100.00;100889.56;4986473;28;20243;-74
2022/10/29 07:03:24;;;;;;;6.90;5.80;;;;;;;11.25;100.00;100899.91;4988276;28;20255;-75
2022/10/29 07:05:57;;;;;;;6.63;5.90;;;;;;;11.35;100.00;100904.22;4993045;28;20249;-76
2022/10/29 07:08:23;;;;;;;8.97;6.57;;;;;;;11.43;100.00;100901.59;5011912;28;20190;-75
2022/10/29 07:10:52;;;;;;;7.50;6.70;;;;;;;11.52;100.00;100893.81;5013038;28;20214;-75
2022/10/29 07:13:18;;;;;;;8.73;6.47;;;;;;;11.59;100.00;100898.09;4991971;28;20227;-77
2022/10/29 07:15:44;;;;;;;7.57;6.33;;;;;;;11.69;100.00;100893.75;4988793;28;20192;-76
2022/10/29 07:18:10;;;;;;;7.60;5.70;;;;;;;11.77;100.00;100901.50;4987543;28;20720;-75
2022/10/29 07:20:41;;;;;;;6.03;5.10;;;;;;;11.88;100.00;100891.94;4984208;28;20593;-76
2022/10/29 07:27:52;;;;;;;5.80;5.20;;;;;;;12.24;100.00;100898.69;4423325;28;22825;-76
2022/10/29 07:31:18;;;;;;;5.63;4.87;;;;;;;12.36;100.00;100896.03;3987599;28;24146;-73
2022/10/29 07:34:49;;;;;;;11.00;5.30;;;;;;;12.49;100.00;100904.59;3760353;28;22728;-73
2022/10/29 07:41:11;;;;;;;6.37;4.70;;;;;;;12.83;100.00;100891.34;3733785;28;21267;-76
2022/10/29 07:43:36;;;;;;;6.67;4.97;;;;;;;12.92;100.00;100893.03;4976865;28;20665;-74
2022/10/29 07:46:01;;;;;;;5.23;4.70;;;;;;;13.01;100.00;100905.91;4996452;28;20181;-75
2022/10/29 07:48:26;;;;;;;4.90;4.40;;;;;;;13.11;100.00;100907.53;4984142;28;20267;-74
2022/10/29 07:50:52;;;;;;;7.50;5.17;;;;;;;13.23;100.00;100908.31;4987084;28;20191;-76
2022/10/29 07:53:17;;;;;;;5.50;4.97;;;;;;;13.33;100.00;100909.06;4987005;28;20228;-76
2022/10/29 07:55:42;;;;;;;5.60;5.10;;;;;;;13.43;100.00;100905.53;4990425;28;20184;-75
2022/10/29 07:58:11;;;;;;;5.93;5.10;;;;;;;13.56;100.00;100916.66;4984706;28;20534;-74
2022/10/29 08:00:38;;;;;;;5.73;5.17;;;;;;;13.68;100.00;100916.53;4985388;28;20213;-76
2022/10/29 08:03:04;;;;;;;6.97;4.70;;;;;;;13.83;100.00;100910.25;4985284;28;20192;-76
2022/10/29 08:05:30;;;;;;;7.43;4.83;;;;;;;13.95;100.00;100911.84;4983540;28;20197;-76
2022/10/29 08:07:56;;;;;;;6.87;5.10;;;;;;;14.11;100.00;100914.25;4984214;28;20203;-74
2022/10/29 08:10:23;;;;;;;5.57;4.70;;;;;;;14.26;100.00;100918.38;4984292;28;20614;-74
2022/10/29 08:12:53;;;;;;;6.43;4.97;;;;;;;14.39;100.00;100912.09;4979014;28;20249;-75
2022/10/29 08:15:19;;;;;;;6.40;5.30;;;;;;;14.50;100.00;100908.50;4994526;28;20177;-75
2022/10/29 08:17:45;;;;;;;8.17;5.13;;;;;;;14.59;100.00;100905.75;4978735;28;20181;-76
2022/10/29 08:20:11;;;;;;;8.40;5.00;;;;;;;14.63;100.00;100902.22;4982231;28;20276;-76
2022/10/29 08:22:37;;;;;;;7.57;4.83;;;;;;;14.64;100.00;100904.78;4999242;28;20900;-75
2022/10/29 08:25:02;;;;;;;5.43;4.83;;;;;;;14.68;100.00;100908.22;4981055;28;20257;-73
2022/10/29 08:27:28;;;;;;;4.87;4.13;;;;;;;14.76;100.00;100902.88;4982620;28;20184;-76
2022/10/29 08:29:53;;;;;;;5.73;4.47;;;;;;;14.84;100.00;100895.81;4984411;28;20189;-76
2022/10/29 08:32:18;;;;;;;6.57;4.60;;;;;;;14.92;100.00;100899.13;4984588;28;20181;-76
2022/10/29 08:34:44;;;;;;;6.03;4.83;;;;;;;15.00;100.00;100892.94;4979417;28;20901;-76
2022/10/29 08:37:09;;;;;;;5.17;4.67;;;;;;;15.06;100.00;100901.50;4982035;28;20173;-75
2022/10/29 08:39:34;;;;;;;7.43;4.70;;;;;;;15.16;100.00;100907.44;4982068;28;20313;-76
2022/10/29 08:42:27;;;;;;;4.80;4.00;;;;;;;15.33;100.00;100901.03;4979383;28;20385;-76
2022/10/29 08:45:11;;;;;;;7.43;4.07;;;;;;;15.50;100.00;100900.72;4979529;28;20204;-74
2022/10/29 08:47:58;;;;;;;6.47;4.50;;;;;;;15.68;100.00;100902.97;4994463;28;20200;-77
2022/10/29 08:50:32;;;;;;;6.83;4.60;;;;;;;15.77;100.00;100894.09;4979616;28;20181;-76
2022/10/29 08:53:00;;;;;;;7.60;4.10;;;;;;;15.77;100.00;100896.69;4984945;28;20177;-75
2022/10/29 08:55:33;;;;;;;6.53;4.43;;;;;;;15.87;100.00;100897.38;4978251;28;20562;-75
2022/10/29 08:58:18;;;;;;;5.67;4.47;;;;;;;16.00;100.00;100900.56;4977013;28;20849;-76
2022/10/29 09:00:48;;;;;;;8.77;4.40;;;;;;;16.12;100.00;100902.91;4996696;28;20201;-74
2022/10/29 09:03:13;;;;;;;4.47;4.07;;;;;;;16.23;100.00;100901.84;4980535;28;20255;-76
2022/10/29 09:06:07;;;;;;;5.13;4.13;;;;;;;16.32;100.00;100906.00;4982438;28;20277;-75
2022/10/29 09:08:58;;;;;;;5.43;4.20;;;;;;;16.41;100.00;100901.38;4980964;28;20189;-73
2022/10/29 09:11:29;;;;;;;5.20;4.07;;;;;;;16.44;100.00;100890.03;4980512;28;20218;-74
2022/10/29 09:14:00;;;;;;;6.20;4.03;;;;;;;16.35;100.00;100892.84;4980340;28;20246;-74
2022/10/29 09:16:28;;;;;;;4.90;4.40;;;;;;;16.30;100.00;100896.44;4985480;28;20218;-75
2022/10/29 09:19:18;;;;;;;5.03;4.07;;;;;;;16.39;100.00;100889.25;4986506;28;20639;-75
2022/10/29 09:22:04;;;;;;;5.40;3.87;;;;;;;16.52;100.00;100893.31;4984626;28;20210;-75
2022/10/29 09:24:56;;;;;;;8.47;4.67;;;;;;;16.59;100.00;100891.41;4984228;28;20230;-75
2022/10/29 09:27:55;;;;;;;8.23;4.17;;;;;;;16.71;100.00;100880.63;4982265;28;20215;-75
2022/10/29 09:30:21;;;;;;;7.67;4.57;;;;;;;16.84;100.00;100882.97;4981695;28;20186;-75
2022/10/29 09:32:49;;;;;;;5.10;3.50;;;;;;;16.94;100.00;100886.19;4982574;28;20245;-74
2022/10/29 09:35:18;;;;;;;6.20;3.63;;;;;;;17.03;100.00;100885.97;4985061;28;20196;-74
2022/10/29 09:37:57;;;;;;;6.07;4.10;;;;;;;17.10;100.00;100881.44;4983491;28;20191;-75
2022/10/29 09:40:34;;;;;;;6.03;4.20;;;;;;;17.16;100.00;100883.91;4982051;28;20256;-73
2022/10/29 09:43:06;;;;;;;4.50;3.53;;;;;;;17.27;100.00;100886.22;4982819;28;20218;-76
2022/10/29 09:45:58;;;;;;;6.73;4.00;;;;;;;17.39;100.00;100890.25;4985070;28;20194;-73
2022/10/29 09:48:32;;;;;;;5.97;3.70;;;;;;;17.44;100.00;100891.00;4983197;28;20596;-75
2022/10/29 09:51:16;;;;;;;6.73;4.03;;;;;;;17.51;100.00;100896.00;4983096;28;20255;-73
2022/10/29 09:53:42;;;;;;;5.67;3.70;;;;;;;17.60;100.00;100899.25;4980842;28;20208;-73
2022/10/29 09:56:08;;;;;;;5.23;3.50;;;;;;;17.67;100.00;100903.44;4979472;28;20193;-75
2022/10/29 09:58:38;;;;;;;7.23;3.80;;;;;;;17.74;100.00;100898.88;4976561;28;20248;-72
2022/10/29 10:01:03;;;;;;;5.27;3.90;;;;;;;17.80;100.00;100907.41;4980792;28;20216;-73
2022/10/29 10:03:37;;;;;;;4.57;3.03;;;;;;;17.90;100.00;100894.91;4980201;28;20233;-72
2022/10/29 10:06:07;;;;;;;6.00;3.53;;;;;;;18.02;100.00;100905.94;4978282;28;20189;-77
2022/10/29 10:08:34;;;;;;;6.37;3.20;;;;;;;18.14;100.00;100908.19;4977250;28;20278;-76
2022/10/29 10:11:01;;;;;;;5.63;3.27;;;;;;;18.27;100.00;100904.28;4979447;28;20276;-76
2022/10/29 10:13:37;;;;;;;6.83;3.20;;;;;;;18.39;100.00;100896.91;4977540;28;20203;-74
2022/10/29 10:16:04;;;;;;;5.67;3.20;;;;;;;18.51;100.00;100896.56;4983535;28;20604;-76
2022/10/29 10:18:30;;;;;;;4.27;3.10;;;;;;;18.61;100.00;100891.00;4981570;28;20192;-76
2022/10/29 10:21:11;;;;;;;5.67;3.47;;;;;;;18.71;100.00;100879.28;4978865;28;20211;-75
2022/10/29 10:23:46;;;;;;;5.50;3.47;;;;;;;18.78;100.00;100877.31;4974514;28;20236;-74
2022/10/29 10:26:33;;;;;;;5.30;3.17;;;;;;;18.81;100.00;100872.84;4982885;28;20271;-78
2022/10/29 10:29:17;;;;;;;5.33;3.50;;;;;;;18.85;100.00;100876.22;4984914;28;20268;-77
2022/10/29 10:32:09;;;;;;;4.83;3.37;;;;;;;18.92;100.00;100872.44;4989127;28;20275;-76
2022/10/29 10:34:38;;;;;;;5.33;3.00;;;;;;;18.96;100.00;100862.78;4985493;28;20213;-75
2022/10/29 10:37:10;;;;;;;4.80;3.57;;;;;;;18.98;100.00;100863.56;4988787;28;20197;-76
2022/10/29 10:39:38;;;;;;;6.47;3.63;;;;;;;19.02;100.00;100855.53;4989560;28;20193;-76
2022/10/29 10:42:35;;;;;;;3.60;3.30;;;;;;;19.09;100.00;100848.31;4987492;28;20221;-76
2022/10/29 10:45:11;;;;;;;4.20;3.10;;;;;;;19.19;100.00;100846.22;4984040;28;20205;-75
2022/10/29 10:47:42;;;;;;;4.30;3.27;;;;;;;19.30;100.00;100845.81;4990651;28;20201;-76
2022/10/29 10:50:10;;;;;;;4.57;2.97;;;;;;;19.40;100.00;100838.44;4987701;28;20828;-77
2022/10/29 10:52:35;;;;;;;4.33;3.03;;;;;;;19.45;100.00;100832.09;4986760;28;20193;-75
2022/10/29 10:55:29;;;;;;;4.77;3.20;;;;;;;19.49;100.00;100827.63;4982720;28;20692;-76
2022/10/29 10:58:08;;;;;;;4.37;3.23;;;;;;;19.50;100.00;100816.22;4986708;28;20207;-74
2022/10/29 11:00:43;;;;;;;6.27;3.33;;;;;;;19.50;100.00;100813.59;4985442;28;20217;-77
2022/10/29 11:03:31;;;;;;;5.30;2.90;;;;;;;19.54;100.00;100809.06;4987323;28;20211;-76
2022/10/29 11:06:09;;;;;;;5.43;3.50;;;;;;;19.57;100.00;100799.28;4985022;28;20396;-77
2022/10/29 11:08:43;;;;;;;5.10;3.43;;;;;;;19.63;100.00;100800.81;4984609;28;20968;-76
2022/10/29 11:11:18;;;;;;;6.40;3.20;;;;;;;19.64;100.00;100795.53;4982592;28;20191;-76
2022/10/29 11:13:44;;;;;;;4.60;3.40;;;;;;;19.67;100.00;100796.31;4986978;28;20271;-75
2022/10/29 11:16:30;;;;;;;4.40;3.10;;;;;;;19.72;100.00;100792.63;4984513;28;20239;-76
2022/10/29 11:19:06;;;;;;;4.63;3.20;;;;;;;19.79;100.00;100787.97;4981043;28;20224;-76
2022/10/29 11:21:50;;;;;;;3.37;3.07;;;;;;;19.84;100.00;100786.00;4984079;28;20224;-77
2022/10/29 11:24:40;;;;;;;4.87;3.23;;;;;;;19.92;100.00;100778.72;4983177;28;20212;-76
2022/10/29 11:27:20;;;;;;;4.93;3.10;;;;;;;20.01;100.00;100779.25;4983143;28;20420;-75
2022/10/29 11:30:08;;;;;;;4.33;3.17;;;;;;;20.10;100.00;100773.63;4984368;28;20200;-76
2022/10/29 11:33:07;;;;;;;4.77;3.27;;;;;;;20.20;100.00;100772.31;4983703;28;20200;-76
2022/10/29 11:35:40;;;;;;;6.40;3.50;;;;;;;20.30;100.00;100766.66;4980397;28;20189;-75
2022/10/29 11:38:20;;;;;;;4.13;3.40;;;;;;;20.38;100.00;100769.84;4986944;28;20625;-75
2022/10/29 11:41:12;;;;;;;4.13;3.37;;;;;;;20.48;100.00;100762.44;4978754;28;20217;-76